sensor_id;sensor_type;location;lat;lon;timestamp;pressure;altitude;pressure_sealevel;temperature;humidity
76095;BME280;64821;13.710;100.604;2023-07-13T00:00:24;100890.19;;;35.74;42.65
76095;BME280;64821;13.710;100.604;2023-07-13T00:01:28;100897.81;;;35.69;42.80
76095;BME280;64821;13.710;100.604;2023-07-13T00:02:32;100915.09;;;35.78;42.45
76095;BME280;64821;13.710;100.604;2023-07-13T00:03:36;100911.69;;;35.81;42.16
76095;BME280;64821;13.710;100.604;2023-07-13T00:04:41;100906.97;;;35.81;41.68
76095;BME280;64821;13.710;100.604;2023-07-13T00:05:45;100908.91;;;35.81;42.56
76095;BME280;64821;13.710;100.604;2023-07-13T00:06:49;100916.16;;;35.85;42.42
76095;BME280;64821;13.710;100.604;2023-07-13T00:07:53;100918.25;;;35.88;42.35
76095;BME280;64821;13.710;100.604;2023-07-13T00:08:56;100921.00;;;35.88;42.62
76095;BME280;64821;13.710;100.604;2023-07-13T00:10:03;100921.94;;;35.92;42.27
76095;BME280;64821;13.710;100.604;2023-07-13T00:11:07;100907.78;;;35.82;42.34
76095;BME280;64821;13.710;100.604;2023-07-13T00:12:23;100920.09;;;35.96;40.97
76095;BME280;64821;13.710;100.604;2023-07-13T00:13:27;100927.69;;;36.00;42.23
76095;BME280;64821;13.710;100.604;2023-07-13T00:14:31;100924.59;;;36.01;41.84
76095;BME280;64821;13.710;100.604;2023-07-13T00:15:35;100896.28;;;35.80;42.04
76095;BME280;64821;13.710;100.604;2023-07-13T00:16:40;100921.84;;;36.01;42.12
76095;BME280;64821;13.710;100.604;2023-07-13T00:17:43;100929.78;;;36.03;42.14
76095;BME280;64821;13.710;100.604;2023-07-13T00:18:47;100933.34;;;36.03;41.97
76095;BME280;64821;13.710;100.604;2023-07-13T00:19:53;100934.00;;;36.00;42.06
76095;BME280;64821;13.710;100.604;2023-07-13T00:20:57;100936.75;;;36.00;42.06
76095;BME280;64821;13.710;100.604;2023-07-13T00:22:00;100929.97;;;35.97;41.74
76095;BME280;64821;13.710;100.604;2023-07-13T00:23:04;100930.78;;;35.98;41.95
76095;BME280;64821;13.710;100.604;2023-07-13T00:24:10;100925.72;;;36.00;41.89
76095;BME280;64821;13.710;100.604;2023-07-13T00:25:14;100931.00;;;36.05;41.84
76095;BME280;64821;13.710;100.604;2023-07-13T00:26:20;100935.03;;;36.08;41.99
76095;BME280;64821;13.710;100.604;2023-07-13T00:27:24;100921.72;;;36.10;41.71
76095;BME280;64821;13.710;100.604;2023-07-13T00:28:28;100930.94;;;36.14;41.69
76095;BME280;64821;13.710;100.604;2023-07-13T00:29:31;100930.94;;;36.14;41.90
76095;BME280;64821;13.710;100.604;2023-07-13T00:30:35;100937.69;;;36.16;41.70
76095;BME280;64821;13.710;100.604;2023-07-13T00:31:39;100937.22;;;36.14;41.62
76095;BME280;64821;13.710;100.604;2023-07-13T00:32:43;100937.59;;;36.13;41.62
76095;BME280;64821;13.710;100.604;2023-07-13T00:33:46;100944.94;;;36.09;41.87
76095;BME280;64821;13.710;100.604;2023-07-13T00:34:52;100943.78;;;36.10;42.06
76095;BME280;64821;13.710;100.604;2023-07-13T00:35:56;100946.88;;;36.08;41.45
76095;BME280;64821;13.710;100.604;2023-07-13T00:37:00;100948.50;;;36.09;41.82
76095;BME280;64821;13.710;100.604;2023-07-13T00:38:04;100948.63;;;36.13;41.69
76095;BME280;64821;13.710;100.604;2023-07-13T00:39:08;100943.13;;;36.13;41.74
76095;BME280;64821;13.710;100.604;2023-07-13T00:40:13;100950.25;;;36.14;41.27
76095;BME280;64821;13.710;100.604;2023-07-13T00:41:17;100940.78;;;36.15;41.56
76095;BME280;64821;13.710;100.604;2023-07-13T00:42:21;100938.13;;;36.06;41.68
76095;BME280;64821;13.710;100.604;2023-07-13T00:43:27;100940.00;;;36.14;41.25
76095;BME280;64821;13.710;100.604;2023-07-13T00:44:31;100946.69;;;36.13;41.51
76095;BME280;64821;13.710;100.604;2023-07-13T00:46:11;100957.31;;;36.23;40.74
76095;BME280;64821;13.710;100.604;2023-07-13T00:47:15;100949.03;;;36.23;41.32
76095;BME280;64821;13.710;100.604;2023-07-13T00:48:21;100955.31;;;36.24;40.89
76095;BME280;64821;13.710;100.604;2023-07-13T00:49:28;100956.13;;;36.24;40.88
76095;BME280;64821;13.710;100.604;2023-07-13T00:50:34;100949.03;;;36.23;41.32
76095;BME280;64821;13.710;100.604;2023-07-13T00:51:40;100956.94;;;36.25;41.12
76095;BME280;64821;13.710;100.604;2023-07-13T00:52:55;100958.22;;;36.27;41.35
76095;BME280;64821;13.710;100.604;2023-07-13T00:54:03;100957.06;;;36.28;41.56
76095;BME280;64821;13.710;100.604;2023-07-13T00:55:08;100952.34;;;36.29;41.17
76095;BME280;64821;13.710;100.604;2023-07-13T00:56:13;100961.78;;;36.28;41.24
76095;BME280;64821;13.710;100.604;2023-07-13T00:57:18;100958.00;;;36.32;41.24
76095;BME280;64821;13.710;100.604;2023-07-13T00:58:26;100962.38;;;36.33;41.02
76095;BME280;64821;13.710;100.604;2023-07-13T00:59:31;100965.47;;;36.32;40.83
76095;BME280;64821;13.710;100.604;2023-07-13T01:00:35;100966.94;;;36.29;41.26
76095;BME280;64821;13.710;100.604;2023-07-13T01:01:40;100967.75;;;36.30;41.36
76095;BME280;64821;13.710;100.604;2023-07-13T01:02:45;100972.47;;;36.29;40.62
76095;BME280;64821;13.710;100.604;2023-07-13T01:03:49;100960.97;;;36.27;41.42
76095;BME280;64821;13.710;100.604;2023-07-13T01:04:56;100966.16;;;36.29;40.71
76095;BME280;64821;13.710;100.604;2023-07-13T01:06:02;100966.16;;;36.29;41.01
76095;BME280;64821;13.710;100.604;2023-07-13T01:07:06;100969.03;;;36.32;41.14
76095;BME280;64821;13.710;100.604;2023-07-13T01:08:10;100969.13;;;36.36;41.27
76095;BME280;64821;13.710;100.604;2023-07-13T01:09:14;100973.97;;;36.39;41.06
76095;BME280;64821;13.710;100.604;2023-07-13T01:10:21;100964.09;;;36.38;40.18
76095;BME280;64821;13.710;100.604;2023-07-13T01:11:27;100971.34;;;36.43;40.52
76095;BME280;64821;13.710;100.604;2023-07-13T01:12:31;100970.63;;;36.46;40.73
76095;BME280;64821;13.710;100.604;2023-07-13T01:13:36;100971.78;;;36.45;40.54
76095;BME280;64821;13.710;100.604;2023-07-13T01:14:39;100959.84;;;36.41;40.91
76095;BME280;64821;13.710;100.604;2023-07-13T01:15:47;100975.25;;;36.42;40.12
76095;BME280;64821;13.710;100.604;2023-07-13T01:16:51;100968.91;;;36.41;40.81
76095;BME280;64821;13.710;100.604;2023-07-13T01:17:55;100972.81;;;36.40;41.38
76095;BME280;64821;13.710;100.604;2023-07-13T01:18:59;100974.78;;;36.40;40.91
76095;BME280;64821;13.710;100.604;2023-07-13T01:20:03;100985.81;;;36.40;40.71
76095;BME280;64821;13.710;100.604;2023-07-13T01:21:09;100995.38;;;36.42;40.59
76095;BME280;64821;13.710;100.604;2023-07-13T01:22:14;100994.66;;;36.45;40.70
76095;BME280;64821;13.710;100.604;2023-07-13T01:23:18;100987.19;;;36.46;40.94
76095;BME280;64821;13.710;100.604;2023-07-13T01:24:22;100993.19;;;36.48;41.01
76095;BME280;64821;13.710;100.604;2023-07-13T01:25:26;100992.84;;;36.49;40.92
76095;BME280;64821;13.710;100.604;2023-07-13T01:26:30;100991.56;;;36.47;40.95
76095;BME280;64821;13.710;100.604;2023-07-13T01:27:34;100999.97;;;36.50;41.03
76095;BME280;64821;13.710;100.604;2023-07-13T01:28:38;100995.59;;;36.49;40.78
76095;BME280;64821;13.710;100.604;2023-07-13T01:29:43;100996.88;;;36.52;40.76
76095;BME280;64821;13.710;100.604;2023-07-13T01:30:48;100971.31;;;36.30;40.51
76095;BME280;64821;13.710;100.604;2023-07-13T01:31:52;100996.50;;;36.53;40.75
76095;BME280;64821;13.710;100.604;2023-07-13T01:32:56;101000.44;;;36.52;40.78
76095;BME280;64821;13.710;100.604;2023-07-13T01:33:59;101003.19;;;36.52;40.90
76095;BME280;64821;13.710;100.604;2023-07-13T01:35:04;101000.06;;;36.54;40.65
76095;BME280;64821;13.710;100.604;2023-07-13T01:36:10;100995.81;;;36.56;40.55
76095;BME280;64821;13.710;100.604;2023-07-13T01:37:15;100994.69;;;36.57;40.78
76095;BME280;64821;13.710;100.604;2023-07-13T01:38:21;100999.84;;;36.59;40.05
76095;BME280;64821;13.710;100.604;2023-07-13T01:39:25;100969.13;;;36.36;40.74
76095;BME280;64821;13.710;100.604;2023-07-13T01:40:29;101004.56;;;36.58;40.82
76095;BME280;64821;13.710;100.604;2023-07-13T01:41:33;101001.47;;;36.60;40.59
76095;BME280;64821;13.710;100.604;2023-07-13T01:42:37;100994.22;;;36.55;40.44
76095;BME280;64821;13.710;100.604;2023-07-13T01:43:41;101012.03;;;36.58;40.81
76095;BME280;64821;13.710;100.604;2023-07-13T01:44:45;101010.22;;;36.62;40.51
76095;BME280;64821;13.710;100.604;2023-07-13T01:45:49;101007.47;;;36.62;40.51
76095;BME280;64821;13.710;100.604;2023-07-13T01:46:53;101009.50;;;36.65;40.54
76095;BME280;64821;13.710;100.604;2023-07-13T01:47:57;101015.03;;;36.65;40.36
76095;BME280;64821;13.710;100.604;2023-07-13T01:49:02;101016.66;;;36.66;40.53
76095;BME280;64821;13.710;100.604;2023-07-13T01:50:06;101016.66;;;36.66;40.49
76095;BME280;64821;13.710;100.604;2023-07-13T01:51:11;101017.94;;;36.68;39.83
76095;BME280;64821;13.710;100.604;2023-07-13T01:52:15;100997.22;;;36.62;40.33
76095;BME280;64821;13.710;100.604;2023-07-13T01:53:19;101016.47;;;36.71;40.44
76095;BME280;64821;13.710;100.604;2023-07-13T01:54:23;101016.81;;;36.69;40.35
76095;BME280;64821;13.710;100.604;2023-07-13T01:55:27;101018.50;;;36.74;40.42
76095;BME280;64821;13.710;100.604;2023-07-13T01:56:31;101013.91;;;36.78;40.38
76095;BME280;64821;13.710;100.604;2023-07-13T01:57:37;101015.53;;;36.79;39.61
76095;BME280;64821;13.710;100.604;2023-07-13T01:58:41;101013.69;;;36.83;40.21
76095;BME280;64821;13.710;100.604;2023-07-13T01:59:45;101002.28;;;36.85;40.34
76095;BME280;64821;13.710;100.604;2023-07-13T02:00:49;101014.16;;;36.85;40.20
76095;BME280;64821;13.710;100.604;2023-07-13T02:01:54;101007.13;;;36.88;40.04
76095;BME280;64821;13.710;100.604;2023-07-13T02:02:59;101004.38;;;36.88;39.83
76095;BME280;64821;13.710;100.604;2023-07-13T02:04:02;101007.25;;;36.91;40.08
76095;BME280;64821;13.710;100.604;2023-07-13T02:05:07;101008.84;;;36.92;40.10
76095;BME280;64821;13.710;100.604;2023-07-13T02:06:13;101003.44;;;36.96;39.83
76095;BME280;64821;13.710;100.604;2023-07-13T02:07:17;101009.09;;;36.99;40.07
76095;BME280;64821;13.710;100.604;2023-07-13T02:08:21;100974.47;;;36.78;39.97
76095;BME280;64821;13.710;100.604;2023-07-13T02:09:25;101006.06;;;37.04;39.79
76095;BME280;64821;13.710;100.604;2023-07-13T02:10:28;101005.25;;;37.04;39.67
76095;BME280;64821;13.710;100.604;2023-07-13T02:11:33;101001.00;;;37.06;39.48
76095;BME280;64821;13.710;100.604;2023-07-13T02:12:37;101005.72;;;37.06;39.97
76095;BME280;64821;13.710;100.604;2023-07-13T02:13:41;100995.81;;;37.05;40.04
76095;BME280;64821;13.710;100.604;2023-07-13T02:14:45;101004.56;;;37.07;39.80
76095;BME280;64821;13.710;100.604;2023-07-13T02:15:50;101004.91;;;37.05;39.17
76095;BME280;64821;13.710;100.604;2023-07-13T02:16:55;101005.72;;;37.06;39.81
76095;BME280;64821;13.710;100.604;2023-07-13T02:17:59;101008.50;;;37.06;39.89
76095;BME280;64821;13.710;100.604;2023-07-13T02:19:03;101020.47;;;37.10;39.90
76095;BME280;64821;13.710;100.604;2023-07-13T02:20:07;101017.00;;;37.13;39.55
76095;BME280;64821;13.710;100.604;2023-07-13T02:21:13;101018.13;;;37.12;39.66
76095;BME280;64821;13.710;100.604;2023-07-13T02:22:17;101025.44;;;37.17;40.08
76095;BME280;64821;13.710;100.604;2023-07-13T02:23:20;101020.25;;;37.15;39.72
76095;BME280;64821;13.710;100.604;2023-07-13T02:24:24;101017.59;;;37.19;39.50
76095;BME280;64821;13.710;100.604;2023-07-13T02:25:28;101024.41;;;37.21;39.25
76095;BME280;64821;13.710;100.604;2023-07-13T02:26:32;101021.63;;;37.21;39.82
76095;BME280;64821;13.710;100.604;2023-07-13T02:27:36;101018.06;;;37.21;39.68
76095;BME280;64821;13.710;100.604;2023-07-13T02:28:42;101015.72;;;37.23;38.78
76095;BME280;64821;13.710;100.604;2023-07-13T02:29:46;101018.63;;;37.26;39.58
76095;BME280;64821;13.710;100.604;2023-07-13T02:30:50;101025.75;;;37.27;39.59
76095;BME280;64821;13.710;100.604;2023-07-13T02:31:54;101017.22;;;37.32;39.39
76095;BME280;64821;13.710;100.604;2023-07-13T02:32:58;101013.28;;;37.33;39.49
76095;BME280;64821;13.710;100.604;2023-07-13T02:34:01;101013.41;;;37.37;39.02
76095;BME280;64821;13.710;100.604;2023-07-13T02:35:06;101004.13;;;37.29;39.34
76095;BME280;64821;13.710;100.604;2023-07-13T02:36:10;101011.91;;;37.39;39.24
76095;BME280;64821;13.710;100.604;2023-07-13T02:37:16;101012.00;;;37.43;39.22
76095;BME280;64821;13.710;100.604;2023-07-13T02:38:20;101004.50;;;37.43;39.08
76095;BME280;64821;13.710;100.604;2023-07-13T02:39:24;100997.63;;;37.37;39.09
76095;BME280;64821;13.710;100.604;2023-07-13T02:40:27;101013.03;;;37.51;39.12
76095;BME280;64821;13.710;100.604;2023-07-13T02:41:31;101006.34;;;37.52;39.00
76095;BME280;64821;13.710;100.604;2023-07-13T02:42:35;101005.19;;;37.53;38.79
76095;BME280;64821;13.710;100.604;2023-07-13T02:43:41;101003.22;;;37.53;38.97
76095;BME280;64821;13.710;100.604;2023-07-13T02:44:45;101003.22;;;37.53;38.95
76095;BME280;64821;13.710;100.604;2023-07-13T02:45:49;101000.91;;;37.55;38.74
76095;BME280;64821;13.710;100.604;2023-07-13T02:46:52;101001.59;;;37.52;38.94
76095;BME280;64821;13.710;100.604;2023-07-13T02:47:56;101002.69;;;37.48;39.10
76095;BME280;64821;13.710;100.604;2023-07-13T02:49:00;101006.47;;;37.43;39.18
76095;BME280;64821;13.710;100.604;2023-07-13T02:50:05;100999.66;;;37.53;38.76
76095;BME280;64821;13.710;100.604;2023-07-13T02:51:09;101001.25;;;37.54;38.78
76095;BME280;64821;13.710;100.604;2023-07-13T02:52:13;100995.16;;;37.60;38.72
76095;BME280;64821;13.710;100.604;2023-07-13T02:53:18;100995.25;;;37.64;38.27
76095;BME280;64821;13.710;100.604;2023-07-13T02:54:22;100990.88;;;37.63;38.68
76095;BME280;64821;13.710;100.604;2023-07-13T02:55:26;100996.53;;;37.66;38.50
76095;BME280;64821;13.710;100.604;2023-07-13T02:56:31;100987.53;;;37.69;38.39
76095;BME280;64821;13.710;100.604;2023-07-13T02:57:35;100986.81;;;37.72;38.64
76095;BME280;64821;13.710;100.604;2023-07-13T02:58:39;100982.56;;;37.75;38.60
76095;BME280;64821;13.710;100.604;2023-07-13T02:59:43;100980.47;;;37.72;38.37
76095;BME280;64821;13.710;100.604;2023-07-13T03:00:47;100978.19;;;37.74;38.46
76095;BME280;64821;13.710;100.604;2023-07-13T03:01:52;100979.78;;;37.75;38.52
76095;BME280;64821;13.710;100.604;2023-07-13T03:02:56;100975.41;;;37.74;38.54
76095;BME280;64821;13.710;100.604;2023-07-13T03:04:00;100944.25;;;37.61;38.54
76095;BME280;64821;13.710;100.604;2023-07-13T03:05:05;100978.00;;;37.83;38.09
76095;BME280;64821;13.710;100.604;2023-07-13T03:06:08;100976.06;;;37.83;38.48
76095;BME280;64821;13.710;100.604;2023-07-13T03:07:13;100972.13;;;37.84;38.40
76095;BME280;64821;13.710;100.604;2023-07-13T03:08:18;100973.75;;;37.85;38.27
76095;BME280;64821;13.710;100.604;2023-07-13T03:09:22;100973.75;;;37.85;38.34
76095;BME280;64821;13.710;100.604;2023-07-13T03:10:26;100974.56;;;37.86;37.88
76095;BME280;64821;13.710;100.604;2023-07-13T03:11:29;100962.69;;;37.85;37.88
76095;BME280;64821;13.710;100.604;2023-07-13T03:12:33;100968.31;;;37.89;38.03
76095;BME280;64821;13.710;100.604;2023-07-13T03:13:37;100967.50;;;37.88;38.26
76095;BME280;64821;13.710;100.604;2023-07-13T03:14:41;100961.25;;;37.91;38.05
76095;BME280;64821;13.710;100.604;2023-07-13T03:15:48;100962.97;;;37.96;37.57
76095;BME280;64821;13.710;100.604;2023-07-13T03:16:52;100955.47;;;37.96;37.92
76095;BME280;64821;13.710;100.604;2023-07-13T03:17:56;100948.78;;;37.97;38.00
76095;BME280;64821;13.710;100.604;2023-07-13T03:19:00;100951.81;;;37.92;37.96
76095;BME280;64821;13.710;100.604;2023-07-13T03:20:05;100948.44;;;37.99;38.06
76095;BME280;64821;13.710;100.604;2023-07-13T03:21:09;100917.53;;;37.81;37.66
76095;BME280;64821;13.710;100.604;2023-07-13T03:22:13;100944.25;;;38.05;37.95
76095;BME280;64821;13.710;100.604;2023-07-13T03:23:19;100925.94;;;38.00;36.99
76095;BME280;64821;13.710;100.604;2023-07-13T03:24:23;100939.19;;;38.07;37.68
76095;BME280;64821;13.710;100.604;2023-07-13T03:25:26;100934.13;;;38.09;37.96
76095;BME280;64821;13.710;100.604;2023-07-13T03:26:30;100896.31;;;37.85;37.45
76095;BME280;64821;13.710;100.604;2023-07-13T03:27:34;100929.81;;;38.11;37.54
76095;BME280;64821;13.710;100.604;2023-07-13T03:28:38;100927.41;;;38.10;37.82
76095;BME280;64821;13.710;100.604;2023-07-13T03:29:42;100935.78;;;38.13;37.58
76095;BME280;64821;13.710;100.604;2023-07-13T03:30:45;100925.19;;;38.16;37.43
76095;BME280;64821;13.710;100.604;2023-07-13T03:31:49;100902.47;;;37.94;37.90
76095;BME280;64821;13.710;100.604;2023-07-13T03:32:53;100932.78;;;38.19;37.26
76095;BME280;64821;13.710;100.604;2023-07-13T03:33:57;100924.91;;;38.21;37.40
76095;BME280;64821;13.710;100.604;2023-07-13T03:35:01;100934.75;;;38.18;37.83
76095;BME280;64821;13.710;100.604;2023-07-13T03:36:05;100926.97;;;38.24;37.50
76095;BME280;64821;13.710;100.604;2023-07-13T03:37:09;100926.69;;;38.29;37.45
76095;BME280;64821;13.710;100.604;2023-07-13T03:38:13;100922.31;;;38.28;37.54
76095;BME280;64821;13.710;100.604;2023-07-13T03:39:18;100918.47;;;38.32;36.32
76095;BME280;64821;13.710;100.604;2023-07-13T03:40:22;100923.28;;;38.35;37.45
76095;BME280;64821;13.710;100.604;2023-07-13T03:41:26;100926.22;;;38.42;37.10
76095;BME280;64821;13.710;100.604;2023-07-13T03:42:30;100922.31;;;38.43;37.36
76095;BME280;64821;13.710;100.604;2023-07-13T03:43:33;100925.53;;;38.45;37.16
76095;BME280;64821;13.710;100.604;2023-07-13T03:44:38;100922.84;;;38.49;36.79
76095;BME280;64821;13.710;100.604;2023-07-13T03:45:42;100923.25;;;38.51;37.03
76095;BME280;64821;13.710;100.604;2023-07-13T03:46:46;100904.38;;;38.53;37.04
76095;BME280;64821;13.710;100.604;2023-07-13T03:47:50;100908.38;;;38.56;37.37
76095;BME280;64821;13.710;100.604;2023-07-13T03:48:53;100903.72;;;38.60;37.07
76095;BME280;64821;13.710;100.604;2023-07-13T03:49:57;100917.66;;;38.63;37.11
76095;BME280;64821;13.710;100.604;2023-07-13T03:51:04;100903.81;;;38.63;36.83
76095;BME280;64821;13.710;100.604;2023-07-13T03:52:07;100911.84;;;38.68;36.54
76095;BME280;64821;13.710;100.604;2023-07-13T03:53:11;100909.84;;;38.69;36.91
76095;BME280;64821;13.710;100.604;2023-07-13T03:54:15;100903.91;;;38.67;36.83
76095;BME280;64821;13.710;100.604;2023-07-13T03:55:21;100919.78;;;38.70;36.39
76095;BME280;64821;13.710;100.604;2023-07-13T03:56:25;100906.03;;;38.73;36.41
76095;BME280;64821;13.710;100.604;2023-07-13T03:57:28;100906.91;;;38.77;36.91
76095;BME280;64821;13.710;100.604;2023-07-13T03:58:34;100900.63;;;38.80;36.63
76095;BME280;64821;13.710;100.604;2023-07-13T03:59:38;100897.16;;;38.83;36.69
76095;BME280;64821;13.710;100.604;2023-07-13T04:00:41;100902.78;;;38.87;36.26
76095;BME280;64821;13.710;100.604;2023-07-13T04:01:45;100904.38;;;38.88;36.93
76095;BME280;64821;13.710;100.604;2023-07-13T04:02:49;100900.41;;;38.89;36.20
76095;BME280;64821;13.710;100.604;2023-07-13T04:03:53;100901.63;;;38.88;36.60
76095;BME280;64821;13.710;100.604;2023-07-13T04:04:57;100839.53;;;38.54;36.28
76095;BME280;64821;13.710;100.604;2023-07-13T04:06:02;100900.16;;;38.94;36.23
76095;BME280;64821;13.710;100.604;2023-07-13T04:07:06;100890.16;;;38.90;36.53
76095;BME280;64821;13.710;100.604;2023-07-13T04:08:09;100897.19;;;39.03;35.98
76095;BME280;64821;13.710;100.604;2023-07-13T04:09:13;100896.03;;;39.04;35.93
76095;BME280;64821;13.710;100.604;2023-07-13T04:10:17;100896.88;;;39.08;35.83
76095;BME280;64821;13.710;100.604;2023-07-13T04:11:25;100896.53;;;39.09;36.14
76095;BME280;64821;13.710;100.604;2023-07-13T04:12:29;100888.97;;;39.06;35.96
76095;BME280;64821;13.710;100.604;2023-07-13T04:13:33;100878.59;;;39.03;36.23
76095;BME280;64821;13.710;100.604;2023-07-13T04:14:36;100878.25;;;39.05;35.64
76095;BME280;64821;13.710;100.604;2023-07-13T04:15:40;100892.94;;;39.09;36.23
76095;BME280;64821;13.710;100.604;2023-07-13T04:16:44;100874.81;;;39.11;35.59
76095;BME280;64821;13.710;100.604;2023-07-13T04:17:48;100882.03;;;39.16;35.67
76095;BME280;64821;13.710;100.604;2023-07-13T04:18:52;100885.22;;;39.18;36.38
76095;BME280;64821;13.710;100.604;2023-07-13T04:19:56;100878.16;;;39.20;35.50
76095;BME280;64821;13.710;100.604;2023-07-13T04:20:59;100885.75;;;39.23;35.97
76095;BME280;64821;13.710;100.604;2023-07-13T04:22:03;100878.25;;;39.24;35.53
76095;BME280;64821;13.710;100.604;2023-07-13T04:23:07;100881.81;;;39.25;36.08
76095;BME280;64821;13.710;100.604;2023-07-13T04:24:11;100881.06;;;39.28;35.56
76095;BME280;64821;13.710;100.604;2023-07-13T04:25:15;100876.75;;;39.30;35.38
76095;BME280;64821;13.710;100.604;2023-07-13T04:26:18;100870.50;;;39.33;34.95
76095;BME280;64821;13.710;100.604;2023-07-13T04:27:24;100867.00;;;39.36;35.67
76095;BME280;64821;13.710;100.604;2023-07-13T04:28:28;100842.38;;;39.12;35.60
76095;BME280;64821;13.710;100.604;2023-07-13T04:29:32;100866.78;;;39.26;35.82
76095;BME280;64821;13.710;100.604;2023-07-13T04:30:36;100871.38;;;39.18;35.52
76095;BME280;64821;13.710;100.604;2023-07-13T04:31:40;100863.94;;;39.03;35.76
76095;BME280;64821;13.710;100.604;2023-07-13T04:32:43;100869.00;;;38.97;36.12
76095;BME280;64821;13.710;100.604;2023-07-13T04:33:47;100860.56;;;38.94;35.67
76095;BME280;64821;13.710;100.604;2023-07-13T04:34:51;100863.69;;;38.92;36.09
76095;BME280;64821;13.710;100.604;2023-07-13T04:35:55;100800.34;;;38.52;35.71
76095;BME280;64821;13.710;100.604;2023-07-13T04:36:59;100856.09;;;39.05;35.95
76095;BME280;64821;13.710;100.604;2023-07-13T04:38:03;100844.56;;;39.03;35.68
76095;BME280;64821;13.710;100.604;2023-07-13T04:39:07;100859.13;;;39.19;35.17
76095;BME280;64821;13.710;100.604;2023-07-13T04:40:12;100857.94;;;39.20;35.48
76095;BME280;64821;13.710;100.604;2023-07-13T04:41:16;100860.09;;;39.27;35.50
76095;BME280;64821;13.710;100.604;2023-07-13T04:42:19;100857.44;;;39.34;34.85
76095;BME280;64821;13.710;100.604;2023-07-13T04:43:25;100854.03;;;39.40;35.01
76095;BME280;64821;13.710;100.604;2023-07-13T04:44:29;100853.28;;;39.43;35.16
76095;BME280;64821;13.710;100.604;2023-07-13T04:45:32;100847.06;;;39.50;34.52
76095;BME280;64821;13.710;100.604;2023-07-13T04:46:38;100851.09;;;39.52;34.81
76095;BME280;64821;13.710;100.604;2023-07-13T04:47:42;100831.25;;;39.50;34.51
76095;BME280;64821;13.710;100.604;2023-07-13T04:48:46;100858.09;;;39.69;34.56
76095;BME280;64821;13.710;100.604;2023-07-13T04:49:50;100845.78;;;39.67;34.58
76095;BME280;64821;13.710;100.604;2023-07-13T04:50:57;100844.59;;;39.68;34.38
76095;BME280;64821;13.710;100.604;2023-07-13T04:52:01;100850.66;;;39.73;34.37
76095;BME280;64821;13.710;100.604;2023-07-13T04:53:05;100856.22;;;39.73;34.18
76095;BME280;64821;13.710;100.604;2023-07-13T04:54:09;100852.72;;;39.76;34.37
76095;BME280;64821;13.710;100.604;2023-07-13T04:55:13;100844.38;;;39.76;34.21
76095;BME280;64821;13.710;100.604;2023-07-13T04:56:16;100852.75;;;39.80;34.18
76095;BME280;64821;13.710;100.604;2023-07-13T20:01:32;100812.50;;;35.60;42.65
76095;BME280;64821;13.710;100.604;2023-07-13T20:02:36;100791.13;;;35.45;42.47
76095;BME280;64821;13.710;100.604;2023-07-13T20:03:39;100802.94;;;35.57;42.94
76095;BME280;64821;13.710;100.604;2023-07-13T20:04:43;100825.00;;;35.57;42.81
76095;BME280;64821;13.710;100.604;2023-07-13T20:05:47;100813.63;;;35.59;42.83
76095;BME280;64821;13.710;100.604;2023-07-13T20:06:51;100811.69;;;35.59;42.90
76095;BME280;64821;13.710;100.604;2023-07-13T20:07:56;100791.03;;;35.53;42.72
76095;BME280;64821;13.710;100.604;2023-07-13T20:09:01;100804.34;;;35.64;43.13
76095;BME280;64821;13.710;100.604;2023-07-13T20:10:17;100800.47;;;35.65;42.32
76095;BME280;64821;13.710;100.604;2023-07-13T20:11:22;100801.25;;;35.65;42.77
76095;BME280;64821;13.710;100.604;2023-07-13T20:12:26;100796.53;;;35.66;42.93
76095;BME280;64821;13.710;100.604;2023-07-13T20:13:30;100803.66;;;35.67;42.68
76095;BME280;64821;13.710;100.604;2023-07-13T20:14:34;100795.06;;;35.68;42.46
76095;BME280;64821;13.710;100.604;2023-07-13T20:15:37;100796.53;;;35.66;42.72
76095;BME280;64821;13.710;100.604;2023-07-13T20:16:43;100774.03;;;35.51;42.85
76095;BME280;64821;13.710;100.604;2023-07-13T20:17:48;100802.75;;;35.63;43.08
76095;BME280;64821;13.710;100.604;2023-07-13T20:18:52;100804.69;;;35.62;42.89
76095;BME280;64821;13.710;100.604;2023-07-13T20:19:56;100801.94;;;35.62;43.07
76095;BME280;64821;13.710;100.604;2023-07-13T20:21:01;100802.41;;;35.64;42.94
76095;BME280;64821;13.710;100.604;2023-07-13T20:22:09;100802.03;;;35.66;43.03
76095;BME280;64821;13.710;100.604;2023-07-13T20:23:15;100795.72;;;35.65;42.82
76095;BME280;64821;13.710;100.604;2023-07-13T20:24:19;100802.50;;;35.68;42.37
76095;BME280;64821;13.710;100.604;2023-07-13T20:25:25;100785.75;;;35.60;42.68
76095;BME280;64821;13.710;100.604;2023-07-13T20:26:29;100793.78;;;35.66;42.86
76095;BME280;64821;13.710;100.604;2023-07-13T20:27:33;100796.53;;;35.66;42.90
76095;BME280;64821;13.710;100.604;2023-07-13T20:28:37;100792.19;;;35.65;42.72
76095;BME280;64821;13.710;100.604;2023-07-13T20:29:40;100781.84;;;35.61;43.10
76095;BME280;64821;13.710;100.604;2023-07-13T20:30:46;100794.16;;;35.64;43.10
76095;BME280;64821;13.710;100.604;2023-07-13T20:31:52;100794.16;;;35.64;43.02
76095;BME280;64821;13.710;100.604;2023-07-13T20:32:56;100794.94;;;35.65;42.88